Flight Track Log - Related Links

Times and Time Zones

All times are in EDT time to prevent confusion due to time zone crossing. See the N143DE flight status page for this flight to view local times or setup timezone preferences in your user account.

Time Position Orientation Groundspeed Altitude Reporting Facility
EDT Latitude Longitude Course Direction KTS MPH feet Rate Location/Type
Fri 12:12:16 PM 32.6061 -81.7483 North 154 177 5,700  Level Jacksonville Center
Fri 12:13:16 PM 32.6497 -81.7453 North 168 193 7,100 1,450 Climbing Jacksonville Center
Fri 12:14:16 PM 32.6981 -81.7569 349° North 168 193 8,600 1,450 Climbing Jacksonville Center
Fri 12:15:16 PM 32.7442 -81.7811 336° Northwest 168 193 10,000 1,292 Climbing Jacksonville Center
Fri 12:16:00 PM 32.7631 -81.8631 320° Northwest  Level FlightAware Approximate
Fri 12:17:45 PM 32.8433 -81.8308 337° Northwest 165 190 13,100  Level Atlanta Center
Fri 12:18:45 PM 32.8919 -81.8519 340° North 170 196 14,100 950 Climbing Atlanta Center
Fri 12:19:45 PM 32.9383 -81.8756 337° Northwest 175 201 15,000 950 Climbing Atlanta Center
Fri 12:20:45 PM 32.9867 -81.8967 340° North 180 207 16,000 950 Climbing Atlanta Center
Fri 12:21:45 PM 33.0369 -81.9203 339° North 180 207 16,900 900 Climbing Atlanta Center
Fri 12:22:45 PM 33.0875 -81.9439 339° North 185 213 17,800 850 Climbing Atlanta Center
Fri 12:23:45 PM 33.1358 -81.9650 340° North 185 213 18,600 800 Climbing Atlanta Center
Fri 12:24:45 PM 33.1844 -81.9911 336° Northwest 190 219 19,400 750 Climbing Atlanta Center
Fri 12:25:45 PM 33.2369 -82.0122 341° North 196 226 20,100 650 Climbing Atlanta Center
Fri 12:26:45 PM 33.2875 -82.0408 335° Northwest 196 226 20,700 600 Climbing Atlanta Center
Fri 12:27:45 PM 33.3400 -82.0619 341° North 196 226 21,300 600 Climbing Atlanta Center
Fri 12:28:45 PM 33.3947 -82.0906 336° Northwest 196 226 21,900 600 Climbing Atlanta Center
Fri 12:29:45 PM 33.4453 -82.1119 341° North 196 226 22,500 550 Climbing Atlanta Center
Fri 12:30:45 PM 33.5042 -82.1406 338° Northwest 196 226 23,000 250 Climbing Atlanta Center
Fri 12:31:45 PM 33.5586 -82.1667 338° Northwest 196 226 23,000  Level Atlanta Center
Fri 12:32:45 PM 33.6197 -82.1953 339° North 213 245 23,000  Level Atlanta Center
Fri 12:33:45 PM 33.6806 -82.2239 339° North 224 258 23,000  Level Atlanta Center
Fri 12:34:45 PM 33.7436 -82.2500 341° North 229 264 23,000  Level Atlanta Center
Fri 12:35:45 PM 33.8047 -82.2814 337° Northwest 234 269 23,000  Level Atlanta Center
Fri 12:36:45 PM 33.8636 -82.3153 334° Northwest 229 264 23,000  Level Atlanta Center
Fri 12:37:45 PM 33.9244 -82.3464 337° Northwest 238 274 23,000  Level Atlanta Center
Fri 12:38:45 PM 33.9894 -82.3728 341° North 238 274 23,000  Level Atlanta Center
Fri 12:39:45 PM 34.0483 -82.4042 336° Northwest 228 262 23,000  Level Atlanta Center
Fri 12:40:45 PM 34.1136 -82.4331 340° North 234 269 23,000  Level Atlanta Center
Fri 12:41:45 PM 34.1703 -82.4594 339° North 243 280 23,000  Level Atlanta Center
Fri 12:42:45 PM 34.2353 -82.4911 338° Northwest 243 280 23,000 200 Level Atlanta Center
Fri 12:43:45 PM 34.2961 -82.5200 339° North 243 280 23,400 450 Climbing Atlanta Center
Fri 12:44:45 PM 34.3528 -82.5492 337° Northwest 233 268 23,900 500 Climbing Atlanta Center
Fri 12:45:45 PM 34.4094 -82.5758 339° North 227 261 24,400 600 Climbing Atlanta Center
Fri 12:46:45 PM 34.4642 -82.6003 340° North 214 246 25,100 550 Climbing Atlanta Center
Fri 12:47:45 PM 34.5167 -82.6294 335° Northwest 203 234 25,500 350 Climbing Atlanta Center
Fri 12:48:45 PM 34.5733 -82.6539 340° North 203 234 25,800 250 Climbing Atlanta Center
Fri 12:49:45 PM 34.6278 -82.6833 336° Northwest 209 241 26,000 100 Climbing Atlanta Center
Fri 12:50:45 PM 34.6761 -82.7053 340° North 209 241 26,000 50 Level Atlanta Center
Fri 12:51:45 PM 34.7328 -82.7344 337° Northwest 214 246 26,100  Climbing Atlanta Center
Fri 12:52:45 PM 34.7914 -82.7614 339° North 214 246 26,000 -50 Descending Atlanta Center
Fri 12:53:45 PM 34.8522 -82.7908 338° Northwest 214 246 26,000  Level Atlanta Center
Fri 12:54:45 PM 34.9111 -82.8178 339° North 219 252 26,000  Level Atlanta Center
Fri 12:55:45 PM 34.9781 -82.8550 336° Northwest 227 261 26,000  Level Atlanta Center
Fri 12:56:45 PM 35.0389 -82.8844 338° Northwest 234 269 26,000  Level Atlanta Center
Fri 12:57:45 PM 35.0975 -82.9142 337° Northwest 234 269 26,000  Level Atlanta Center
Fri 12:58:45 PM 35.1625 -82.9439 340° North 234 269 26,000  Level Atlanta Center
Fri 12:59:45 PM 35.2214 -82.9736 338° Northwest 234 269 26,000  Level Atlanta Center
Fri 01:00:45 PM 35.2819 -83.0006 340° North 234 269 26,000 50 Level Atlanta Center
Fri 01:01:45 PM 35.3408 -83.0331 336° Northwest 234 269 26,100 50 Climbing Atlanta Center
Fri 01:02:45 PM 35.4014 -83.0628 338° Northwest 234 269 26,100 -50 Level Atlanta Center
Fri 01:03:45 PM 35.4622 -83.0928 338° Northwest 234 269 26,000  Descending Atlanta Center
Fri 01:04:45 PM 35.5208 -83.1228 337° Northwest 234 269 26,100 50 Climbing Atlanta Center
Fri 01:05:45 PM 35.5836 -83.1525 339° North 234 269 26,100  Level Atlanta Center
Fri 01:06:45 PM 35.6444 -83.1828 338° Northwest 234 269 26,100  Level Atlanta Center
Fri 01:07:45 PM 35.7072 -83.2128 339° North 234 269 26,100  Level Atlanta Center
Fri 01:08:45 PM 35.7636 -83.2481 333° Northwest 239 275 26,100  Level Atlanta Center
Fri 01:09:45 PM 35.8244 -83.2781 338° Northwest 239 275 26,100  Level Atlanta Center
Fri 01:10:45 PM 35.8872 -83.3083 339° North 239 275 26,100  Level Atlanta Center
Fri 01:11:45 PM 35.9458 -83.3386 337° Northwest 234 269 26,100  Level Atlanta Center
Fri 01:12:45 PM 36.0128 -83.3686 340° North 234 269 26,100  Level Atlanta Center
Fri 01:13:45 PM 36.0733 -83.3992 338° Northwest 234 269 26,100  Level Atlanta Center
Fri 01:14:45 PM 36.1319 -83.4294 337° Northwest 234 269 26,100  Level Atlanta Center
Fri 01:15:45 PM 36.1903 -83.4600 337° Northwest 227 261 26,100  Level Atlanta Center
Fri 01:16:45 PM 36.2511 -83.4903 338° Northwest 227 261 26,100  Level Atlanta Center
Fri 01:17:45 PM 36.3094 -83.5233 335° Northwest 232 267 26,100  Level Atlanta Center
Fri 01:18:45 PM 36.3703 -83.5514 340° North 232 267 26,100  Level Atlanta Center
Fri 01:20:12 PM 36.4472 -83.5911 337° Northwest 228 262 26,100  Level Indianapolis Center
Fri 01:21:14 PM 36.5164 -83.6244 339° North 223 257 26,100  Level Indianapolis Center
Fri 01:22:15 PM 36.5667 -83.6506 337° Northwest 223 257 26,100  Level Indianapolis Center
Fri 01:23:17 PM 36.6347 -83.6839 339° North 224 258 26,100  Level Indianapolis Center
Fri 01:24:19 PM 36.6894 -83.7142 336° Northwest 216 249 26,100  Level Indianapolis Center
Fri 01:25:21 PM 36.7475 -83.7433 338° Northwest 221 254 26,100  Level Indianapolis Center
Fri 01:26:22 PM 36.8056 -83.7744 337° Northwest 225 259 26,100  Level Indianapolis Center
Fri 01:27:24 PM 36.8636 -83.8042 338° Northwest 225 259 26,100  Level Indianapolis Center
Fri 01:28:26 PM 36.9225 -83.8347 337° Northwest 226 260 26,100  Level Indianapolis Center
Fri 01:29:28 PM 36.9786 -83.8653 336° Northwest 221 254 26,100  Level Indianapolis Center
Fri 01:30:29 PM 37.0475 -83.9003 338° Northwest 225 259 26,100  Level Indianapolis Center
Fri 01:31:31 PM 37.1069 -83.9300 338° Northwest 227 261 26,100  Level Indianapolis Center
Fri 01:32:33 PM 37.1656 -83.9606 337° Northwest 226 260 26,100  Level Indianapolis Center
Fri 01:33:35 PM 37.2228 -83.9914 337° Northwest 224 258 26,100  Level Indianapolis Center
Fri 01:34:36 PM 37.2825 -84.0214 338° Northwest 227 261 26,100  Level Indianapolis Center
Fri 01:35:38 PM 37.3392 -84.0519 337° Northwest 223 257 26,100  Level Indianapolis Center
Fri 01:36:40 PM 37.3983 -84.0825 338° Northwest 227 261 26,100  Level Indianapolis Center
Fri 01:37:42 PM 37.4639 -84.1181 337° Northwest 222 255 26,100  Level Indianapolis Center
Fri 01:38:43 PM 37.5214 -84.1481 338° Northwest 222 255 26,100  Level Indianapolis Center
Fri 01:39:45 PM 37.5758 -84.1783 336° Northwest 217 250 26,100  Level Indianapolis Center
Fri 01:40:47 PM 37.6319 -84.2058 339° North 214 246 26,100 -49 Level Indianapolis Center
Fri 01:41:48 PM 37.6856 -84.2364 336° Northwest 213 245 26,000 -32 Descending Indianapolis Center
Fri 01:43:00 PM 37.7519 -84.2801 332° Northwest  Level FlightAware Approximate
Fri 01:43:52 PM 37.7958 -84.2939 332° Northwest 213 245 26,000  Level Indianapolis Center
Fri 01:44:54 PM 37.8586 -84.3267 338° Northwest 208 239 26,000  Level Indianapolis Center
Fri 01:45:55 PM 37.9128 -84.3558 337° Northwest 208 239 26,000  Level Indianapolis Center
Fri 01:46:57 PM 37.9675 -84.3847 337° Northwest 213 245 26,000  Level Indianapolis Center
Fri 01:47:59 PM 38.0225 -84.4150 337° Northwest 213 245 26,000  Level Indianapolis Center
Fri 01:49:01 PM 38.0772 -84.4414 339° North 212 244 26,000  Level Indianapolis Center
Fri 01:50:03 PM 38.1311 -84.4739 335° Northwest 215 247 26,000  Level Indianapolis Center
Fri 01:51:04 PM 38.1864 -84.5022 338° Northwest 212 244 26,000  Level Indianapolis Center
Fri 01:52:06 PM 38.2486 -84.5361 337° Northwest 208 239 26,000  Level Indianapolis Center
Fri 01:53:08 PM 38.3031 -84.5656 337° Northwest 211 243 26,000 49 Level Indianapolis Center
Fri 01:54:09 PM 38.3578 -84.5933 338° Northwest 212 244 26,100 49 Climbing Indianapolis Center
Fri 01:55:11 PM 38.4131 -84.6233 337° Northwest 215 247 26,100  Level Indianapolis Center
Fri 01:56:13 PM 38.4681 -84.6539 336° Northwest 214 246 26,100 -48 Level Indianapolis Center
Fri 01:57:15 PM 38.5214 -84.6847 336° Northwest 210 242 26,000  Descending Indianapolis Center
Fri 01:58:16 PM 38.5769 -84.7117 339° North 209 241 26,100 49 Climbing Indianapolis Center
Fri 01:59:18 PM 38.6389 -84.7492 335° Northwest 211 243 26,100  Level Indianapolis Center
Fri 02:00:20 PM 38.6878 -84.7753 337° Northwest 209 241 26,100  Level Indianapolis Center
Fri 02:01:21 PM 38.7403 -84.8047 336° Northwest 205 236 26,100  Level Indianapolis Center
Fri 02:02:23 PM 38.7928 -84.8353 336° Northwest 207 238 26,100  Level Indianapolis Center
Fri 02:03:25 PM 38.8550 -84.8725 335° Northwest 206 237 26,100  Level Indianapolis Center
Fri 02:04:26 PM 38.9114 -84.8989 340° North 213 245 26,100  Level Indianapolis Center
Fri 02:05:28 PM 38.9636 -84.9281 337° Northwest 206 237 26,100  Level Indianapolis Center
Fri 02:06:30 PM 39.0150 -84.9567 337° Northwest 203 234 26,100  Level Indianapolis Center
Fri 02:07:32 PM 39.0667 -84.9853 337° Northwest 203 234 26,100  Level Indianapolis Center
Fri 02:08:33 PM 39.1200 -85.0136 338° Northwest 205 236 26,100  Level Indianapolis Center
Fri 02:09:35 PM 39.1733 -85.0422 337° Northwest 206 237 26,100  Level Indianapolis Center
Fri 02:10:37 PM 39.2361 -85.0775 336° Northwest 206 237 26,100  Level Indianapolis Center
Fri 02:11:38 PM 39.2894 -85.1072 337° Northwest 208 239 26,100  Level Indianapolis Center
Fri 02:12:40 PM 39.3386 -85.1367 335° Northwest 201 231 26,100  Level Indianapolis Center
Fri 02:13:42 PM 39.3917 -85.1647 338° Northwest 204 235 26,100  Level Indianapolis Center
Fri 02:14:44 PM 39.4419 -85.1942 336° Northwest 201 231 26,100  Level Indianapolis Center
Fri 02:15:45 PM 39.4939 -85.2219 338° Northwest 201 231 26,100  Level Indianapolis Center
Fri 02:16:47 PM 39.5547 -85.2567 336° Northwest 201 231 26,100  Level Indianapolis Center
Fri 02:17:49 PM 39.6047 -85.2856 336° Northwest 199 229 26,100  Level Indianapolis Center
Fri 02:18:50 PM 39.6567 -85.3136 337° Northwest 201 231 26,100  Level Indianapolis Center
Fri 02:19:52 PM 39.7075 -85.3408 338° Northwest 201 231 26,100  Level Indianapolis Center
Fri 02:20:54 PM 39.7561 -85.3725 333° Northwest 198 228 26,100  Level Indianapolis Center
Fri 02:21:55 PM 39.8039 -85.4042 333° Northwest 196 226 26,100  Level Indianapolis Center
Fri 02:22:57 PM 39.8503 -85.4381 331° Northwest 193 222 26,100  Level Indianapolis Center
Fri 02:23:59 PM 39.9031 -85.4831 327° Northwest 192 221 26,100 -49 Level Indianapolis Center
Fri 02:25:00 PM 39.9475 -85.5197 328° Northwest 191 220 26,000 -49 Descending Indianapolis Center
Fri 02:26:02 PM 39.9942 -85.5550 330° Northwest 194 223 26,000  Level Indianapolis Center
Fri 02:27:04 PM 40.0375 -85.5906 328° Northwest 187 215 26,000  Level Indianapolis Center
Fri 02:28:05 PM 40.0819 -85.6264 328° Northwest 189 217 26,000  Level Indianapolis Center
Fri 02:29:07 PM 40.1267 -85.6628 328° Northwest 190 219 26,000  Level Indianapolis Center
Fri 02:30:08 PM 40.1711 -85.6978 329° Northwest 189 217 26,000  Level Indianapolis Center
Fri 02:31:10 PM 40.2228 -85.7433 326° Northwest 187 215 26,000  Level Indianapolis Center
Fri 02:32:12 PM 40.2656 -85.7808 326° Northwest 186 214 26,000  Level Indianapolis Center
Fri 02:33:13 PM 40.3075 -85.8178 326° Northwest 183 211 26,000  Level Indianapolis Center
Fri 02:34:15 PM 40.3486 -85.8572 324° Northwest 183 211 26,000  Level Indianapolis Center
Fri 02:35:03 PM 40.3844 -85.8878 327° Northwest 185 213 26,000  Level Chicago Center
Fri 02:36:05 PM 40.4278 -85.9228 328° Northwest 183 211 26,000  Level Chicago Center
Fri 02:37:07 PM 40.4794 -85.9419 344° North 192 221 26,000  Level Chicago Center
Fri 02:38:09 PM 40.5456 -85.9631 346° North 205 236 26,000  Level Chicago Center
Fri 02:39:12 PM 40.5989 -85.9847 343° North 202 232 26,000  Level Chicago Center
Fri 02:40:14 PM 40.6497 -86.0158 335° Northwest 202 232 26,000  Level Chicago Center
Fri 02:41:16 PM 40.7036 -86.0544 331° Northwest 199 229 26,000  Level Chicago Center
Fri 02:42:18 PM 40.7514 -86.0953 327° Northwest 203 234 26,000  Level Chicago Center
Fri 02:43:20 PM 40.8069 -86.1253 338° Northwest 213 245 26,000  Level Chicago Center
Fri 02:44:22 PM 40.8628 -86.1542 339° North 214 246 26,000  Level Chicago Center
Fri 02:45:24 PM 40.9172 -86.1858 336° Northwest 214 246 26,000  Level Chicago Center
Fri 02:46:26 PM 40.9842 -86.2247 336° Northwest 217 250 26,000  Level Chicago Center
Fri 02:47:28 PM 41.0408 -86.2550 338° Northwest 219 252 26,000  Level Chicago Center
Fri 02:48:30 PM 41.0972 -86.2883 336° Northwest 221 254 26,000  Level Chicago Center
Fri 02:49:33 PM 41.1539 -86.3178 339° North 219 252 26,000 48 Level Chicago Center
Fri 02:50:35 PM 41.2100 -86.3500 337° Northwest 220 253 26,100  Climbing Chicago Center
Fri 02:51:37 PM 41.2658 -86.3814 337° Northwest 219 252 26,000 -48 Descending Chicago Center
Fri 02:52:39 PM 41.3206 -86.4147 335° Northwest 216 249 26,000  Level Chicago Center
Fri 02:53:41 PM 41.3889 -86.4519 338° Northwest 220 253 26,000  Level Chicago Center
Fri 02:54:43 PM 41.4439 -86.4856 335° Northwest 217 250 26,000  Level Chicago Center
Fri 02:55:45 PM 41.5003 -86.5161 338° Northwest 218 251 26,000  Level Chicago Center
Fri 02:56:47 PM 41.5561 -86.5503 335° Northwest 219 252 26,000  Level Chicago Center
Fri 02:57:49 PM 41.6122 -86.5825 337° Northwest 218 251 26,000 48 Level Chicago Center
Fri 02:58:51 PM 41.6681 -86.6158 336° Northwest 219 252 26,100 48 Climbing Chicago Center
Fri 02:59:54 PM 41.7369 -86.6536 338° Northwest 222 255 26,100  Level Chicago Center
Fri 03:00:56 PM 41.7947 -86.6861 337° Northwest 224 258 26,100  Level Chicago Center
Fri 03:01:58 PM 41.8542 -86.7222 336° Northwest 231 266 26,100  Level Chicago Center
Fri 03:03:00 PM 41.9111 -86.7542 337° Northwest 227 261 26,100  Level Chicago Center
Fri 03:04:02 PM 41.9694 -86.7878 337° Northwest 230 265 26,100  Level Chicago Center
Fri 03:05:04 PM 42.0386 -86.8286 336° Northwest 230 265 26,100  Level Chicago Center
Fri 03:06:06 PM 42.0961 -86.8636 336° Northwest 229 264 26,100  Level Chicago Center
Fri 03:07:08 PM 42.1553 -86.8958 338° Northwest 231 266 26,100  Level Chicago Center
Fri 03:08:10 PM 42.2136 -86.9317 336° Northwest 231 266 26,100  Level Chicago Center
Fri 03:09:13 PM 42.2836 -86.9708 338° Northwest 230 265 26,100  Level Chicago Center
Fri 03:10:15 PM 42.3425 -87.0064 336° Northwest 232 267 26,100  Level Chicago Center
Fri 03:11:17 PM 42.4008 -87.0411 336° Northwest 231 266 26,100  Level Chicago Center
Fri 03:12:19 PM 42.4594 -87.0753 337° Northwest 231 266 26,100  Level Chicago Center
Fri 03:13:21 PM 42.5194 -87.1108 336° Northwest 237 273 26,100  Level Chicago Center
Fri 03:14:23 PM 42.5819 -87.1464 337° Northwest 234 269 26,100  Level Chicago Center
Fri 03:15:26 PM 42.6406 -87.1825 336° Northwest 233 268 26,100  Level Chicago Center
Fri 03:16:28 PM 42.7128 -87.2247 337° Northwest 234 269 26,100  Level Chicago Center
Fri 03:17:30 PM 42.7711 -87.2606 336° Northwest 232 267 26,100  Level Chicago Center
Fri 03:18:32 PM 42.8317 -87.2964 337° Northwest 235 270 26,100  Level Chicago Center
Fri 03:19:34 PM 42.8936 -87.3336 336° Northwest 240 276 26,100  Level Chicago Center
Fri 03:20:36 PM 42.9544 -87.3678 338° Northwest 239 275 26,100  Level Chicago Center
Fri 03:21:38 PM 43.0181 -87.4097 334° Northwest 233 268 26,100  Level Chicago Center
Fri 03:22:40 PM 43.0792 -87.4447 337° Northwest 238 274 26,100  Level Chicago Center
Fri 03:23:42 PM 43.1397 -87.4825 336° Northwest 240 276 26,100  Level Chicago Center
Fri 03:24:44 PM 43.2114 -87.5244 337° Northwest 238 274 26,100  Level Chicago Center
Fri 03:25:46 PM 43.2719 -87.5625 335° Northwest 240 276 26,100  Level Chicago Center
Fri 03:26:48 PM 43.3325 -87.5981 337° Northwest 238 274 26,100  Level Chicago Center
Fri 03:27:50 PM 43.3925 -87.6361 335° Northwest 237 273 26,100  Level Chicago Center
Fri 03:28:53 PM 43.4536 -87.6717 337° Northwest 238 274 26,100  Level Chicago Center
Fri 03:29:55 PM 43.5233 -87.7169 335° Northwest 237 273 26,100  Level Chicago Center
Fri 03:30:57 PM 43.5847 -87.7522 337° Northwest 239 275 26,100  Level Chicago Center
Fri 03:31:59 PM 43.6439 -87.7914 334° Northwest 238 274 26,100  Level Chicago Center
Fri 03:33:01 PM 43.7056 -87.8267 338° Northwest 240 276 26,100  Level Chicago Center
Fri 03:34:03 PM 43.7753 -87.8731 334° Northwest 239 275 26,100  Level Chicago Center
Fri 03:35:05 PM 43.8361 -87.9097 337° Northwest 239 275 26,100  Level Chicago Center
Fri 03:36:07 PM 43.8950 -87.9481 335° Northwest 236 272 26,100  Level Chicago Center
Fri 03:37:09 PM 43.9544 -87.9856 336° Northwest 236 272 26,100  Level Chicago Center
Fri 03:38:11 PM 44.0139 -88.0206 337° Northwest 233 268 26,100  Level Chicago Center
Fri 03:39:13 PM 44.0817 -88.0653 335° Northwest 233 268 26,100  Level Chicago Center
Fri 03:40:15 PM 44.1414 -88.1003 337° Northwest 235 270 26,100  Level Chicago Center
Fri 03:41:45 PM 44.2303 -88.1564 336° Northwest 235 270 26,100  Level Minneapolis Center
Fri 03:42:47 PM 44.2886 -88.1942 335° Northwest 233 268 26,100 -144 Level Minneapolis Center
Fri 03:43:50 PM 44.3456 -88.2411 329° Northwest 234 269 25,800 -480 Descending Minneapolis Center
Fri 03:44:52 PM 44.4042 -88.2936 327° Northwest 245 282 25,100 -726 Descending Minneapolis Center
Fri 03:45:54 PM 44.4672 -88.3442 330° Northwest 258 297 24,300 -532 Descending Minneapolis Center
Fri 03:46:56 PM 44.5383 -88.4053 329° Northwest 257 296 24,000 -145 Descending Minneapolis Center
Fri 03:47:58 PM 44.5961 -88.4517 330° Northwest 242 278 24,000  Level Minneapolis Center
Fri 03:49:00 PM 44.6522 -88.4972 330° Northwest 235 270 24,000  Level Minneapolis Center
Fri 03:50:02 PM 44.7081 -88.5456 328° Northwest 235 270 24,000 -191 Level Minneapolis Center
Fri 03:51:37 PM 44.8025 -88.6181 331° Northwest 232 267 23,500 -480 Descending Chicago Center
Fri 03:52:07 PM 44.8353 -88.6319 343° North 238 274 23,000 -1,043 Descending Minneapolis Center
Fri 03:53:09 PM 44.9075 -88.6372 357° North 255 293 21,900 -1,161 Descending Minneapolis Center
Fri 03:54:11 PM 44.9797 -88.6439 356° North 259 298 20,600 -1,355 Descending Minneapolis Center
Fri 03:55:13 PM 45.0572 -88.6517 356° North 256 295 19,100 -1,452 Descending Minneapolis Center
Fri 03:56:15 PM 45.1247 -88.6681 350° North 255 293 17,600 -1,355 Descending Minneapolis Center
Fri 03:57:17 PM 45.1783 -88.7231 324° Northwest 241 277 16,300 -1,452 Descending Minneapolis Center
Fri 03:58:19 PM 45.2372 -88.7642 334° Northwest 236 272 14,600 -1,306 Descending Minneapolis Center
Fri 03:59:21 PM 45.2958 -88.8089 332° Northwest 238 274 13,600 -1,296 Descending Minneapolis Center
Fri 04:00:24 PM 45.3453 -88.8897 311° West 230 265 11,900 -1,488 Descending Minneapolis Center
Fri 04:01:26 PM 45.3819 -88.9639 305° West 229 264 10,500 -968 Descending Minneapolis Center
Fri 04:02:28 PM 45.4186 -89.0306 308° West 217 250 9,900 -677 Descending Minneapolis Center
Fri 04:03:30 PM 45.4519 -89.0997 305° West 212 244 9,100 -823 Descending Minneapolis Center
Fri 04:04:32 PM 45.4786 -89.1797 295° West 220 253 8,200 -774 Descending Minneapolis Center
Fri 04:05:34 PM 45.5169 -89.2483 309° West 222 255 7,500 -823 Descending Minneapolis Center
Fri 04:06:36 PM 45.5639 -89.3303 309° West 221 254 6,500 -968 Descending Minneapolis Center
Fri 04:07:38 PM 45.6019 -89.4000 308° West 222 255 5,500 -1,248 Descending Minneapolis Center
Fri 04:08:41 PM 45.6428 -89.4636 313° West 219 252 3,900 -912 Descending Minneapolis Center
Fri 04:09:43 PM 45.6950 -89.4467 13° North 199 229 3,600 -242 Descending Minneapolis Center
Fri 04:10:45 PM 45.7392 -89.4419 North 175 201 3,400 -97 Descending Minneapolis Center
Fri 04:11:47 PM 45.7811 -89.4375 North 161 185 3,400 -48 Level Minneapolis Center
Fri 04:12:49 PM 45.8236 -89.4242 12° North 161 185 3,300 -290 Descending Minneapolis Center
Fri 04:13:51 PM 45.8631 -89.3681 45° Northeast 166 191 2,800 -484 Descending Minneapolis Center

Login

Don't have an account? Register now (free) for customized features, flight alerts, and more!